Time;durP1;ratioP1;P1;durP2;ratioP2;P2;SDS_P1;SDS_P2;PMS_P1;PMS_P2;Temp;Humidity;BMP_temperature;BMP_pressure;BME280_temperature;BME280_humidity;BME280_pressure;Samples;Min_cycle;Max_cycle;Signal;HPM_P1;HPM_P2
2023/07/16 00:00:12;;;;;;;22.30;4.82;;;19.90;79.30;;;;;;4132421;28;20196;-51
2023/07/16 00:02:15;;;;;;;11.93;4.03;;;19.90;79.40;;;;;;4132367;28;20120;-51
2023/07/16 00:04:18;;;;;;;20.83;5.53;;;19.80;79.90;;;;;;4132445;28;20494;-51
2023/07/16 00:06:21;;;;;;;11.20;4.57;;;19.80;80.30;;;;;;4132371;28;20481;-53
2023/07/16 00:08:23;;;;;;;7.78;4.65;;;19.80;80.20;;;;;;4131619;28;20145;-49
2023/07/16 00:10:25;;;;;;;12.02;4.93;;;19.80;80.70;;;;;;4132319;28;20117;-51
2023/07/16 00:12:27;;;;;;;13.48;5.07;;;19.80;80.60;;;;;;4132174;28;20143;-51
2023/07/16 00:14:29;;;;;;;13.45;4.88;;;19.70;80.80;;;;;;4132329;28;20583;-50
2023/07/16 00:16:31;;;;;;;9.50;4.18;;;19.70;80.90;;;;;;4132486;28;20082;-50
2023/07/16 00:18:34;;;;;;;12.52;5.07;;;19.70;81.00;;;;;;4131488;28;20409;-55
2023/07/16 00:20:37;;;;;;;11.57;5.18;;;19.70;81.00;;;;;;4131726;28;20046;-50
2023/07/16 00:22:40;;;;;;;10.30;4.75;;;19.70;81.10;;;;;;4132071;28;20042;-51
2023/07/16 00:24:42;;;;;;;16.17;5.13;;;19.60;81.20;;;;;;4132255;28;20093;-51
2023/07/16 00:26:44;;;;;;;11.00;4.80;;;19.60;81.20;;;;;;4132358;28;20081;-52
2023/07/16 00:28:46;;;;;;;13.93;4.90;;;19.60;81.30;;;;;;4131351;28;20053;-53
2023/07/16 00:30:48;;;;;;;18.10;4.97;;;19.50;81.90;;;;;;4132207;28;20049;-58
2023/07/16 00:32:51;;;;;;;12.43;5.15;;;19.50;81.60;;;;;;4114952;28;20046;-52
2023/07/16 00:34:53;;;;;;;11.20;4.95;;;19.50;81.80;;;;;;4132686;28;20061;-52
2023/07/16 00:37:01;;;;;;;12.23;5.13;;;19.50;82.10;;;;;;4133487;28;20085;-52
2023/07/16 00:39:03;;;;;;;15.07;5.82;;;19.50;82.10;;;;;;4131103;28;20058;-51
2023/07/16 00:41:05;;;;;;;12.02;5.10;;;19.40;82.40;;;;;;4132236;28;20169;-51
2023/07/16 00:43:07;;;;;;;16.20;5.38;;;19.40;82.60;;;;;;4132457;28;20039;-51
2023/07/16 00:45:15;;;;;;;12.65;5.47;;;19.40;82.70;;;;;;4132900;28;20042;-51
2023/07/16 00:47:18;;;;;;;13.65;5.60;;;19.40;83.10;;;;;;4132180;28;20046;-52
2023/07/16 00:49:20;;;;;;;20.77;5.88;;;19.30;83.30;;;;;;4130924;28;20081;-51
2023/07/16 00:51:25;;;;;;;10.98;5.30;;;19.30;83.20;;;;;;4132171;28;20050;-52
2023/07/16 00:53:32;;;;;;;;;;;19.30;83.40;;;;;;4132435;28;20046;-58
2023/07/16 00:55:36;;;;;;;13.57;5.28;;;19.30;83.90;;;;;;4131683;28;19922;-52
2023/07/16 00:57:39;;;;;;;19.52;5.85;;;19.20;84.10;;;;;;4131748;28;20050;-52
2023/07/16 00:59:42;;;;;;;13.48;5.18;;;19.20;84.20;;;;;;4130347;28;20051;-52
2023/07/16 01:01:45;;;;;;;17.90;5.30;;;19.20;84.20;;;;;;4130389;28;20046;-51
2023/07/16 01:03:47;;;;;;;15.30;5.38;;;19.20;84.20;;;;;;4131003;28;20046;-51
2023/07/16 01:05:55;;;;;;;15.55;5.50;;;19.20;84.10;;;;;;4131735;28;20046;-57
2023/07/16 01:08:03;;;;;;;15.40;4.88;;;19.20;84.40;;;;;;4132243;28;20081;-51
2023/07/16 01:10:08;;;;;;;12.20;5.10;;;19.10;84.40;;;;;;4131071;28;20048;-51
2023/07/16 01:12:10;;;;;;;16.00;6.18;;;19.10;84.50;;;;;;4132106;28;20093;-53
2023/07/16 01:14:16;;;;;;;13.30;5.40;;;19.10;84.50;;;;;;4131621;28;20042;-51
2023/07/16 01:16:20;;;;;;;16.08;5.60;;;19.10;84.70;;;;;;4131528;28;20054;-51
2023/07/16 01:18:22;;;;;;;12.68;4.95;;;19.00;84.70;;;;;;4129240;28;20057;-51
2023/07/16 01:20:27;;;;;;;13.73;5.55;;;19.10;84.70;;;;;;4130902;28;20046;-50
2023/07/16 01:22:48;;;;;;;13.98;5.75;;;19.00;85.10;;;;;;4131721;28;20177;-53
2023/07/16 01:25:24;;;;;;;14.95;6.43;;;18.90;85.50;;;;;;4132103;28;20043;-58
2023/07/16 01:27:55;;;;;;;11.40;5.78;;;18.90;85.70;;;;;;4050242;29;20138;-50
2023/07/16 01:30:03;;;;;;;15.38;6.22;;;18.90;86.00;;;;;;4049323;29;20123;-53
2023/07/16 01:32:07;;;;;;;17.17;6.15;;;18.90;86.00;;;;;;4050384;29;20135;-51
2023/07/16 01:34:10;;;;;;;13.13;6.50;;;18.90;86.10;;;;;;4049896;29;20408;-51
2023/07/16 01:36:14;;;;;;;18.63;6.05;;;18.80;86.20;;;;;;4050007;29;20049;-50
2023/07/16 01:38:18;;;;;;;17.60;6.50;;;18.80;86.20;;;;;;4049919;29;20064;-50
2023/07/16 01:40:20;;;;;;;15.77;6.13;;;18.90;86.10;;;;;;4049850;29;20444;-50
2023/07/16 01:42:23;;;;;;;14.40;6.50;;;18.90;86.00;;;;;;4050416;29;20496;-50
2023/07/16 01:44:25;;;;;;;15.70;5.95;;;18.90;86.30;;;;;;4049962;29;20044;-50
2023/07/16 01:46:29;;;;;;;14.85;6.00;;;18.80;86.40;;;;;;4049916;29;20091;-50
2023/07/16 01:48:34;;;;;;;14.77;5.60;;;18.80;86.40;;;;;;4048997;29;20063;-54
2023/07/16 01:50:37;;;;;;;14.98;6.60;;;18.80;86.70;;;;;;4050152;29;20049;-52
2023/07/16 01:52:39;;;;;;;18.80;7.05;;;18.80;86.70;;;;;;4050297;29;20131;-60
2023/07/16 01:54:41;;;;;;;19.15;6.80;;;18.70;86.90;;;;;;4050310;29;20060;-57
2023/07/16 01:56:43;;;;;;;11.65;6.03;;;18.70;87.20;;;;;;4050128;29;20057;-51
2023/07/16 01:58:47;;;;;;;18.73;7.20;;;18.70;87.20;;;;;;4049049;29;20056;-49
2023/07/16 02:00:54;;;;;;;13.13;6.43;;;18.70;87.10;;;;;;4035868;29;20056;-51
2023/07/16 02:02:58;;;;;;;16.02;6.95;;;18.80;87.30;;;;;;4049544;29;20529;-51
2023/07/16 02:05:00;;;;;;;15.30;6.80;;;18.70;87.20;;;;;;4106611;28;20450;-51
2023/07/16 02:07:02;;;;;;;18.50;6.85;;;18.70;87.40;;;;;;4115016;28;20046;-51
2023/07/16 02:09:04;;;;;;;13.43;6.20;;;18.60;87.60;;;;;;4114228;28;20196;-51
2023/07/16 02:11:06;;;;;;;18.25;6.82;;;18.70;87.40;;;;;;4114407;28;20126;-55
2023/07/16 02:13:09;;;;;;;17.48;6.95;;;18.70;87.30;;;;;;4114761;28;20050;-51
2023/07/16 02:15:11;;;;;;;19.63;6.60;;;18.70;87.60;;;;;;4115265;28;20054;-51
2023/07/16 02:17:13;;;;;;;17.55;6.97;;;18.60;88.20;;;;;;4114495;28;20047;-52
2023/07/16 02:19:16;;;;;;;15.75;6.18;;;18.50;88.40;;;;;;4114145;28;20050;-50
2023/07/16 02:21:18;;;;;;;19.27;7.60;;;18.60;88.20;;;;;;4115074;28;20047;-50
2023/07/16 02:23:22;;;;;;;20.50;7.68;;;18.60;88.30;;;;;;4115262;28;20126;-51
2023/07/16 02:25:25;;;;;;;14.45;5.93;;;18.50;88.60;;;;;;4114908;28;20054;-51
2023/07/16 02:27:27;;;;;;;13.85;6.03;;;18.50;89.00;;;;;;4114785;28;20050;-51
2023/07/16 02:29:29;;;;;;;15.75;6.28;;;18.50;89.10;;;;;;4114229;28;20065;-52
2023/07/16 02:31:31;;;;;;;14.65;6.15;;;18.40;89.30;;;;;;4114542;28;20081;-52
2023/07/16 02:33:33;;;;;;;21.63;6.95;;;18.40;89.10;;;;;;4114974;28;20049;-55
2023/07/16 02:35:39;;;;;;;18.50;6.18;;;18.40;89.00;;;;;;4116020;28;20078;-51
2023/07/16 02:37:41;;;;;;;17.23;6.65;;;18.30;89.30;;;;;;4116128;28;20050;-52
2023/07/16 02:39:48;;;;;;;18.70;7.25;;;18.30;89.60;;;;;;4115510;28;20054;-59
2023/07/16 02:41:52;;;;;;;17.80;6.15;;;18.30;89.80;;;;;;4115958;28;20043;-51
2023/07/16 02:44:00;;;;;;;17.45;6.97;;;18.30;89.70;;;;;;4114852;28;20129;-51
2023/07/16 02:46:02;;;;;;;15.50;6.03;;;18.30;89.90;;;;;;4114535;28;20493;-51
2023/07/16 02:48:06;;;;;;;21.38;6.55;;;18.30;89.90;;;;;;4114506;28;20047;-51
2023/07/16 02:50:09;;;;;;;14.45;5.85;;;18.30;89.80;;;;;;4112853;28;20489;-51
2023/07/16 02:52:13;;;;;;;13.23;6.20;;;18.20;89.80;;;;;;4114953;28;20046;-51
2023/07/16 02:54:15;;;;;;;16.00;5.90;;;18.20;89.90;;;;;;4115612;28;20047;-54
2023/07/16 02:56:18;;;;;;;18.83;6.25;;;18.20;90.00;;;;;;4115113;28;20054;-50
2023/07/16 02:58:20;;;;;;;17.85;6.07;;;18.30;89.90;;;;;;4116416;28;20458;-51
2023/07/16 03:00:23;;;;;;;19.08;6.05;;;18.20;89.80;;;;;;4130119;28;20082;-55
2023/07/16 03:02:25;;;;;;;18.38;6.93;;;18.20;89.90;;;;;;4132058;28;20043;-51
2023/07/16 03:04:27;;;;;;;16.75;5.82;;;18.20;90.00;;;;;;4131316;28;20046;-53
2023/07/16 03:06:30;;;;;;;12.35;5.78;;;18.20;90.10;;;;;;4131465;28;20050;-55
2023/07/16 03:08:34;;;;;;;18.77;6.63;;;18.30;90.00;;;;;;4131412;28;20046;-50
2023/07/16 03:10:36;;;;;;;16.15;6.15;;;18.20;90.10;;;;;;4131199;28;20401;-54
2023/07/16 03:12:40;;;;;;;20.48;7.00;;;18.10;90.20;;;;;;4133905;28;20121;-52
2023/07/16 03:14:43;;;;;;;14.45;6.53;;;18.10;90.30;;;;;;4127889;28;20532;-53
2023/07/16 03:16:45;;;;;;;17.00;6.90;;;18.10;90.30;;;;;;4133850;28;20046;-51
2023/07/16 03:18:48;;;;;;;18.77;6.63;;;18.10;90.50;;;;;;4132415;28;20054;-53
2023/07/16 03:20:50;;;;;;;13.50;5.65;;;18.10;90.40;;;;;;4133098;28;20050;-50
2023/07/16 03:22:53;;;;;;;15.95;6.32;;;18.00;90.50;;;;;;4133223;28;20406;-53
2023/07/16 03:24:56;;;;;;;13.30;6.20;;;18.00;90.60;;;;;;4115951;28;20121;-52
2023/07/16 03:26:59;;;;;;;15.40;5.95;;;17.90;90.60;;;;;;4133045;28;20046;-52
2023/07/16 03:29:06;;;;;;;14.63;6.22;;;18.00;90.70;;;;;;4114544;28;20477;-53
2023/07/16 03:31:08;;;;;;;21.33;6.70;;;17.90;90.80;;;;;;4116161;28;20053;-52
2023/07/16 03:33:10;;;;;;;13.80;6.85;;;17.90;90.80;;;;;;4133620;28;20062;-51
2023/07/16 03:35:15;;;;;;;15.93;6.50;;;17.90;90.90;;;;;;4133464;28;20093;-51
2023/07/16 03:37:20;;;;;;;20.35;6.88;;;17.80;91.00;;;;;;4116003;28;20050;-57
2023/07/16 03:39:23;;;;;;;18.70;7.28;;;17.80;91.10;;;;;;4132193;28;20100;-51
2023/07/16 03:41:26;;;;;;;12.70;6.70;;;17.80;91.10;;;;;;4131875;28;20038;-51
2023/07/16 03:43:28;;;;;;;16.58;6.57;;;17.80;91.20;;;;;;4132987;28;20050;-51
2023/07/16 03:45:31;;;;;;;15.45;6.43;;;17.80;91.20;;;;;;4133588;28;20042;-52
2023/07/16 03:47:34;;;;;;;15.20;5.90;;;17.80;91.20;;;;;;4133825;28;20125;-51
2023/07/16 03:49:36;;;;;;;17.33;6.93;;;17.80;91.30;;;;;;4132087;28;20050;-56
2023/07/16 03:51:38;;;;;;;19.73;7.03;;;17.80;91.30;;;;;;4122067;28;20054;-51
2023/07/16 03:53:40;;;;;;;20.88;7.13;;;17.70;91.30;;;;;;4132843;28;20046;-51
2023/07/16 03:55:42;;;;;;;12.95;6.22;;;17.70;91.40;;;;;;4132461;28;20053;-50
2023/07/16 03:57:46;;;;;;;19.27;6.85;;;17.80;91.50;;;;;;4132496;28;20060;-51
2023/07/16 03:59:48;;;;;;;13.38;6.25;;;17.70;92.00;;;;;;4131379;28;20137;-51
2023/07/16 04:01:50;;;;;;;17.92;7.18;;;17.70;91.80;;;;;;4132234;28;20117;-51
2023/07/16 04:03:52;;;;;;;19.20;6.80;;;17.60;91.70;;;;;;4132544;28;20278;-54
2023/07/16 04:06:02;;;;;;;16.15;6.45;;;17.60;92.00;;;;;;4114941;28;20047;-52
2023/07/16 04:08:04;;;;;;;16.88;7.65;;;17.70;91.60;;;;;;4132847;28;20050;-51
2023/07/16 04:10:07;;;;;;;17.50;7.22;;;17.70;91.70;;;;;;4131278;28;20038;-50
2023/07/16 04:12:09;;;;;;;15.60;6.57;;;17.70;91.80;;;;;;4132183;28;20105;-52
2023/07/16 04:14:12;;;;;;;23.73;7.13;;;17.70;91.70;;;;;;4132663;28;20046;-50
2023/07/16 04:16:14;;;;;;;14.35;6.40;;;17.70;91.80;;;;;;4132221;28;20105;-50
2023/07/16 04:18:17;;;;;;;21.02;7.80;;;17.80;91.70;;;;;;4132649;28;20112;-52
2023/07/16 04:20:20;;;;;;;14.25;6.95;;;17.70;91.80;;;;;;4130173;28;20129;-52
2023/07/16 04:22:22;;;;;;;21.05;7.28;;;17.80;91.80;;;;;;4132596;28;20042;-50
2023/07/16 04:24:26;;;;;;;17.40;7.03;;;17.80;91.70;;;;;;4132541;28;20073;-52
2023/07/16 04:26:28;;;;;;;18.15;7.30;;;17.80;91.70;;;;;;4131559;28;20046;-50
2023/07/16 04:28:31;;;;;;;17.33;7.53;;;17.80;91.80;;;;;;4132234;28;20457;-50
2023/07/16 04:30:34;;;;;;;14.80;6.65;;;17.70;91.90;;;;;;4131634;28;20084;-50
2023/07/16 04:32:36;;;;;;;17.38;7.07;;;17.70;91.90;;;;;;4133525;28;20057;-51
2023/07/16 04:34:38;;;;;;;19.55;6.88;;;17.80;91.90;;;;;;4132533;28;20058;-51
2023/07/16 04:36:42;;;;;;;15.73;7.20;;;17.80;91.90;;;;;;4132670;28;20052;-55
2023/07/16 04:38:44;;;;;;;19.95;6.55;;;17.80;91.90;;;;;;4132627;28;20050;-50
2023/07/16 04:40:46;;;;;;;17.83;7.00;;;17.70;92.10;;;;;;4131246;28;20046;-52
2023/07/16 04:42:48;;;;;;;18.17;7.82;;;17.80;92.10;;;;;;4131987;28;20074;-50
2023/07/16 04:44:50;;;;;;;19.48;8.35;;;17.70;92.20;;;;;;4132320;28;20053;-51
2023/07/16 04:46:54;;;;;;;16.98;7.32;;;17.70;92.50;;;;;;4114619;28;20047;-51
2023/07/16 04:48:56;;;;;;;22.35;7.55;;;17.70;92.20;;;;;;4131276;28;20058;-55
2023/07/16 04:50:59;;;;;;;18.65;6.60;;;17.80;92.10;;;;;;4131653;28;20136;-51
2023/07/16 04:53:01;;;;;;;19.85;7.22;;;17.80;92.20;;;;;;4131977;28;20050;-55
2023/07/16 04:55:04;;;;;;;21.73;7.57;;;17.90;92.10;;;;;;4114622;28;20047;-51
2023/07/16 04:57:07;;;;;;;19.85;7.53;;;17.90;92.10;;;;;;4114434;28;20046;-51
2023/07/16 04:59:09;;;;;;;22.33;7.00;;;17.80;92.20;;;;;;4130672;28;20138;-50
2023/07/16 05:01:11;;;;;;;18.25;7.53;;;17.90;92.20;;;;;;4131319;28;20046;-51
2023/07/16 05:03:15;;;;;;;19.30;7.72;;;18.00;92.10;;;;;;4131347;28;20117;-51
2023/07/16 05:05:17;;;;;;;19.67;7.22;;;18.00;92.10;;;;;;4131787;28;20050;-50
2023/07/16 05:07:20;;;;;;;17.40;7.13;;;18.00;92.10;;;;;;4131533;28;20077;-55
2023/07/16 05:09:22;;;;;;;21.38;7.43;;;18.00;92.10;;;;;;4130769;28;20904;-51
2023/07/16 05:11:25;;;;;;;19.25;7.15;;;18.00;92.10;;;;;;4131358;28;20054;-51
2023/07/16 05:13:27;;;;;;;18.13;7.53;;;18.00;92.20;;;;;;4131140;28;20104;-52
2023/07/16 05:15:31;;;;;;;21.33;8.27;;;18.00;92.20;;;;;;4131587;28;20196;-51
2023/07/16 05:17:33;;;;;;;18.02;6.80;;;18.00;92.20;;;;;;4131419;28;20453;-50
2023/07/16 05:19:37;;;;;;;21.20;8.15;;;18.10;92.10;;;;;;4131024;28;20078;-51
2023/07/16 05:21:42;;;;;;;17.67;7.82;;;18.10;92.10;;;;;;4132068;28;20050;-51
2023/07/16 05:23:44;;;;;;;23.77;7.78;;;18.10;92.00;;;;;;4131234;28;20422;-51
2023/07/16 05:25:47;;;;;;;17.65;7.55;;;18.10;92.20;;;;;;4131220;28;20414;-51
2023/07/16 05:27:49;;;;;;;22.85;7.85;;;18.10;92.20;;;;;;4132070;28;20053;-51
2023/07/16 05:29:52;;;;;;;19.33;7.75;;;18.20;92.10;;;;;;4131511;28;20575;-51
2023/07/16 05:31:54;;;;;;;16.60;7.53;;;18.20;92.10;;;;;;4132034;28;20066;-53
2023/07/16 05:33:56;;;;;;;17.90;7.75;;;18.10;92.20;;;;;;4131057;28;20489;-55
2023/07/16 05:35:59;;;;;;;17.80;7.70;;;18.10;92.30;;;;;;4131677;28;20129;-52
2023/07/16 05:38:01;;;;;;;15.30;7.10;;;18.20;92.30;;;;;;4131652;28;20046;-50
2023/07/16 05:40:05;;;;;;;16.35;7.80;;;18.20;92.20;;;;;;4113103;28;20047;-53
2023/07/16 05:42:07;;;;;;;18.30;6.03;;;18.20;92.20;;;;;;4131942;28;20066;-52
2023/07/16 05:44:10;;;;;;;14.95;7.72;;;18.30;92.20;;;;;;4131620;28;20042;-51
2023/07/16 05:46:12;;;;;;;16.92;7.70;;;18.30;92.20;;;;;;4131351;28;20050;-59
2023/07/16 05:48:15;;;;;;;19.92;7.85;;;18.20;92.30;;;;;;4130801;28;20088;-51
2023/07/16 05:50:17;;;;;;;20.27;8.13;;;18.20;92.20;;;;;;4130584;28;20054;-51
2023/07/16 05:52:20;;;;;;;22.60;8.25;;;18.30;92.20;;;;;;4131920;28;20046;-51
2023/07/16 05:54:23;;;;;;;20.48;7.32;;;18.30;92.10;;;;;;4130716;28;20046;-51
2023/07/16 05:56:25;;;;;;;19.58;7.70;;;18.30;92.30;;;;;;4131541;28;20245;-55
2023/07/16 05:58:27;;;;;;;23.65;8.00;;;18.30;92.20;;;;;;4129873;28;20379;-51
2023/07/16 06:00:29;;;;;;;24.98;7.82;;;18.40;92.10;;;;;;4114421;28;20047;-51
2023/07/16 06:02:32;;;;;;;16.92;7.40;;;18.40;92.10;;;;;;4115286;28;20053;-51
2023/07/16 06:04:34;;;;;;;17.75;6.85;;;18.30;92.20;;;;;;4114938;28;20051;-51
2023/07/16 06:06:36;;;;;;;20.48;7.88;;;18.40;92.10;;;;;;4115453;28;20376;-51
2023/07/16 06:08:40;;;;;;;14.80;6.93;;;18.40;91.90;;;;;;4113376;28;20051;-51
2023/07/16 06:10:43;;;;;;;26.90;7.38;;;18.40;92.10;;;;;;4128041;28;20042;-51
2023/07/16 06:12:45;;;;;;;20.52;7.50;;;18.40;92.10;;;;;;4113984;28;20089;-51
2023/07/16 06:14:47;;;;;;;20.23;7.53;;;18.40;92.10;;;;;;4114613;28;20053;-53
2023/07/16 06:16:49;;;;;;;16.90;7.05;;;18.50;92.00;;;;;;4114756;28;20085;-51
2023/07/16 06:18:52;;;;;;;19.23;8.00;;;18.60;91.90;;;;;;4113779;28;20065;-52
2023/07/16 06:20:55;;;;;;;20.08;7.53;;;18.60;91.90;;;;;;4114019;28;20150;-52
2023/07/16 06:22:57;;;;;;;22.80;7.57;;;18.60;91.90;;;;;;4114846;28;20493;-51
2023/07/16 06:25:01;;;;;;;23.67;7.93;;;18.80;91.70;;;;;;4115026;28;20051;-57
2023/07/16 06:27:03;;;;;;;20.57;7.37;;;18.90;91.60;;;;;;4115676;28;20050;-56
2023/07/16 06:29:06;;;;;;;18.67;7.72;;;18.90;91.60;;;;;;4116023;28;20055;-51
2023/07/16 06:31:08;;;;;;;19.75;7.80;;;19.00;91.50;;;;;;4113945;28;20117;-54
2023/07/16 06:33:10;;;;;;;23.75;7.55;;;19.00;91.30;;;;;;4115892;28;20047;-51
2023/07/16 06:35:12;;;;;;;27.67;7.85;;;19.10;91.30;;;;;;4114808;28;20049;-52
2023/07/16 06:37:14;;;;;;;20.45;7.18;;;19.20;91.10;;;;;;4115162;28;20047;-51
2023/07/16 06:39:17;;;;;;;23.83;8.20;;;19.40;91.00;;;;;;4114681;28;20047;-52
2023/07/16 06:41:20;;;;;;;19.00;7.03;;;19.40;90.90;;;;;;4114120;28;20078;-51
2023/07/16 06:43:22;;;;;;;19.13;7.35;;;19.50;90.90;;;;;;4114867;28;20047;-52
2023/07/16 06:45:25;;;;;;;24.83;7.20;;;19.50;91.00;;;;;;4114989;28;20042;-50
2023/07/16 06:47:27;;;;;;;22.23;7.80;;;19.60;90.70;;;;;;4117713;28;20114;-51
2023/07/16 06:49:30;;;;;;;18.25;7.30;;;19.70;90.70;;;;;;4116931;28;20050;-50
2023/07/16 06:51:32;;;;;;;22.48;7.72;;;19.80;90.50;;;;;;4117048;28;20114;-51
2023/07/16 06:53:35;;;;;;;18.83;7.47;;;19.90;90.40;;;;;;4116391;28;20074;-51
2023/07/16 06:55:37;;;;;;;19.73;7.57;;;19.90;90.30;;;;;;4117748;28;20210;-59
2023/07/16 06:57:41;;;;;;;16.20;7.40;;;20.00;90.30;;;;;;4117757;28;20472;-51
2023/07/16 06:59:43;;;;;;;19.65;7.55;;;20.10;90.20;;;;;;4129048;28;20418;-52
2023/07/16 07:01:45;;;;;;;19.88;7.88;;;20.20;90.10;;;;;;4133502;28;20050;-50
2023/07/16 07:03:48;;;;;;;20.35;7.50;;;20.20;90.00;;;;;;4133809;28;20133;-53
2023/07/16 07:05:50;;;;;;;17.17;7.15;;;20.30;89.80;;;;;;4133494;28;20042;-52
2023/07/16 07:07:52;;;;;;;21.35;8.18;;;20.30;89.90;;;;;;4133604;28;20137;-50
2023/07/16 07:09:54;;;;;;;21.40;7.78;;;20.30;89.70;;;;;;4132560;28;20078;-51
2023/07/16 07:11:56;;;;;;;18.60;7.18;;;20.40;89.20;;;;;;4133088;28;20042;-53
2023/07/16 07:13:59;;;;;;;16.23;7.13;;;20.50;88.80;;;;;;4133258;28;20117;-50
2023/07/16 07:16:02;;;;;;;20.88;7.53;;;20.60;88.60;;;;;;4133168;28;20467;-50
2023/07/16 07:18:04;;;;;;;14.80;7.00;;;20.60;88.60;;;;;;4129637;28;20085;-51
2023/07/16 07:20:08;;;;;;;17.98;6.78;;;20.70;88.00;;;;;;4132359;28;20042;-54
2023/07/16 07:22:10;;;;;;;16.30;6.32;;;20.80;88.00;;;;;;4142484;28;20053;-52
2023/07/16 07:24:13;;;;;;;18.15;6.97;;;20.80;87.60;;;;;;4133018;28;20587;-50
2023/07/16 07:26:15;;;;;;;21.80;7.35;;;20.90;87.40;;;;;;4132890;28;20081;-51
2023/07/16 07:28:18;;;;;;;18.63;7.00;;;21.00;87.10;;;;;;4132015;28;20552;-54
2023/07/16 07:30:24;;;;;;;20.58;7.25;;;21.10;87.20;;;;;;4131993;28;20054;-50
2023/07/16 07:32:26;;;;;;;19.17;7.45;;;21.20;87.00;;;;;;4131544;28;20038;-52
2023/07/16 07:34:28;;;;;;;17.40;6.43;;;21.20;87.00;;;;;;4133165;28;20046;-51
2023/07/16 07:36:30;;;;;;;15.20;6.57;;;21.40;85.70;;;;;;4132640;28;20046;-51
2023/07/16 07:38:33;;;;;;;19.52;7.25;;;21.60;85.60;;;;;;4132465;28;20511;-51
2023/07/16 07:40:35;;;;;;;15.25;7.18;;;21.70;85.60;;;;;;4114758;28;20513;-50
2023/07/16 07:42:37;;;;;;;16.42;7.25;;;21.60;85.60;;;;;;4132764;28;20078;-50
2023/07/16 07:44:39;;;;;;;16.25;7.00;;;21.70;85.10;;;;;;4132591;28;20186;-51
2023/07/16 07:46:42;;;;;;;16.98;6.63;;;21.90;85.10;;;;;;4132951;28;20050;-50
2023/07/16 07:48:44;;;;;;;16.30;6.97;;;22.00;84.60;;;;;;4131405;28;20149;-51
2023/07/16 07:50:47;;;;;;;19.85;6.85;;;21.90;84.20;;;;;;4131507;28;20549;-51
2023/07/16 07:52:52;;;;;;;25.58;8.10;;;21.80;84.70;;;;;;4132423;28;20406;-51
2023/07/16 07:54:54;;;;;;;18.00;6.40;;;21.90;84.20;;;;;;4132769;28;20046;-51
2023/07/16 07:57:00;;;;;;;;;;;22.00;83.60;;;;;;4131703;28;20050;-51
2023/07/16 07:59:04;;;;;;;20.50;6.75;;;21.90;83.70;;;;;;4132253;28;20000;-50
2023/07/16 08:01:07;;;;;;;16.88;6.28;;;22.00;83.90;;;;;;4131820;28;20050;-50
2023/07/16 08:03:13;;;;;;;19.67;5.90;;;22.00;83.60;;;;;;4132243;28;20073;-53
2023/07/16 08:05:15;;;;;;;17.52;6.30;;;21.80;83.20;;;;;;4132277;28;20046;-51
2023/07/16 08:07:18;;;;;;;12.18;6.10;;;21.90;83.30;;;;;;4132463;28;20295;-51
2023/07/16 08:09:20;;;;;;;19.30;6.72;;;22.10;83.10;;;;;;4132333;28;20129;-51
2023/07/16 08:11:25;;;;;;;18.08;6.78;;;22.20;83.00;;;;;;4131517;28;20078;-51
2023/07/16 08:13:27;;;;;;;18.58;6.38;;;22.20;82.70;;;;;;4132264;28;20477;-64
2023/07/16 08:15:29;;;;;;;19.17;6.53;;;22.20;82.70;;;;;;4132630;28;20397;-55
2023/07/16 08:17:31;;;;;;;17.38;5.80;;;22.30;82.20;;;;;;4132384;28;20130;-51
2023/07/16 08:19:35;;;;;;;17.27;5.82;;;22.20;82.30;;;;;;4130358;28;20482;-52
2023/07/16 08:21:37;;;;;;;14.25;6.05;;;22.10;81.60;;;;;;4130989;28;20130;-51
2023/07/16 08:23:39;;;;;;;17.90;6.63;;;22.00;81.60;;;;;;4132202;28;20101;-51
2023/07/16 08:25:42;;;;;;;13.98;5.95;;;22.10;82.20;;;;;;4132119;28;20050;-51
2023/07/16 08:27:45;;;;;;;14.00;6.28;;;22.10;82.10;;;;;;4132324;28;20096;-56
2023/07/16 08:29:47;;;;;;;18.05;6.57;;;22.10;82.20;;;;;;4131263;28;20050;-52
2023/07/16 08:31:50;;;;;;;15.55;5.93;;;22.10;81.80;;;;;;4131947;28;20101;-53
2023/07/16 08:33:52;;;;;;;16.75;6.75;;;22.00;81.50;;;;;;4131573;28;20117;-57
2023/07/16 08:35:56;;;;;;;11.15;6.07;;;22.30;81.30;;;;;;4131946;28;20048;-52
2023/07/16 08:37:58;;;;;;;19.20;7.18;;;22.40;80.90;;;;;;4132171;28;20050;-51
2023/07/16 08:40:00;;;;;;;15.63;6.20;;;22.60;80.70;;;;;;4130639;28;20049;-51
2023/07/16 08:42:03;;;;;;;13.63;6.35;;;22.70;80.30;;;;;;4131921;28;20601;-53
2023/07/16 08:44:05;;;;;;;13.63;6.38;;;22.80;79.70;;;;;;4131886;28;20409;-53
2023/07/16 08:46:08;;;;;;;30.90;7.32;;;23.00;79.80;;;;;;4130782;28;20042;-50
2023/07/16 08:48:11;;;;;;;16.38;5.47;;;23.20;78.90;;;;;;4131452;28;20081;-51
2023/07/16 08:50:13;;;;;;;17.02;5.82;;;23.30;78.60;;;;;;4130913;28;20046;-51
2023/07/16 08:52:18;;;;;;;15.60;5.93;;;23.40;78.10;;;;;;4131662;28;20051;-50
2023/07/16 08:54:21;;;;;;;20.40;7.05;;;23.50;77.90;;;;;;4131630;28;20042;-52
2023/07/16 08:56:24;;;;;;;25.02;6.40;;;23.50;77.80;;;;;;4117752;28;20051;-51
2023/07/16 08:58:27;;;;;;;15.20;5.80;;;23.40;77.70;;;;;;4131463;28;20070;-52
2023/07/16 09:00:29;;;;;;;11.60;5.10;;;23.30;77.30;;;;;;4130730;28;20485;-52
2023/07/16 09:02:32;;;;;;;17.48;5.30;;;23.00;76.50;;;;;;4130932;28;20121;-51
2023/07/16 09:04:34;;;;;;;16.65;6.03;;;23.30;77.00;;;;;;4114601;28;20105;-54
2023/07/16 09:06:37;;;;;;;27.90;6.80;;;23.40;77.00;;;;;;4131349;28;20052;-52
2023/07/16 09:08:40;;;;;;;12.38;4.88;;;23.30;76.40;;;;;;4130721;28;20100;-54
2023/07/16 09:10:43;;;;;;;13.82;5.43;;;23.20;76.50;;;;;;4130215;28;20049;-51
2023/07/16 09:12:46;;;;;;;12.55;5.72;;;22.80;76.80;;;;;;4131545;28;20057;-51
2023/07/16 09:14:48;;;;;;;16.83;5.10;;;22.80;78.10;;;;;;4131206;28;20074;-51
2023/07/16 09:16:50;;;;;;;13.20;5.40;;;23.20;77.60;;;;;;4130653;28;20078;-51
2023/07/16 09:18:53;;;;;;;11.57;5.10;;;23.30;77.30;;;;;;4131552;28;20042;-51
2023/07/16 09:20:56;;;;;;;17.40;5.60;;;23.30;76.40;;;;;;4130190;28;20121;-54
2023/07/16 09:22:59;;;;;;;13.27;4.80;;;23.20;76.40;;;;;;4131326;28;20062;-51
2023/07/16 09:25:03;;;;;;;17.65;6.47;;;23.10;76.70;;;;;;4131120;28;20043;-52
2023/07/16 09:27:05;;;;;;;20.67;5.70;;;23.00;76.80;;;;;;4130812;28;20052;-51
2023/07/16 09:29:08;;;;;;;14.13;5.30;;;23.00;76.40;;;;;;4131153;28;20129;-51
2023/07/16 09:31:10;;;;;;;11.00;4.53;;;23.00;76.40;;;;;;4129679;28;20060;-52
2023/07/16 09:33:13;;;;;;;15.85;5.40;;;23.10;75.80;;;;;;4131094;28;20069;-51
2023/07/16 09:35:16;;;;;;;12.88;5.32;;;23.20;75.50;;;;;;4131169;28;20049;-53
2023/07/16 09:37:19;;;;;;;11.77;4.40;;;23.30;75.50;;;;;;4130735;28;20078;-52
2023/07/16 09:39:22;;;;;;;10.95;5.05;;;23.30;74.90;;;;;;4129703;28;20160;-51
2023/07/16 09:41:28;;;;;;;10.07;4.68;;;23.30;75.30;;;;;;4129904;28;20121;-51
2023/07/16 09:43:31;;;;;;;10.35;5.35;;;23.30;75.60;;;;;;4130808;28;20088;-57
2023/07/16 09:45:33;;;;;;;11.38;4.55;;;23.20;75.50;;;;;;4130902;28;20142;-50
2023/07/16 09:47:36;;;;;;;13.85;5.30;;;23.20;75.90;;;;;;4130657;28;20042;-51
2023/07/16 09:49:38;;;;;;;13.93;4.93;;;23.40;75.30;;;;;;4130850;28;20085;-51
2023/07/16 09:51:40;;;;;;;12.82;5.43;;;23.00;75.70;;;;;;4130016;28;20121;-51
2023/07/16 09:53:45;;;;;;;11.82;5.45;;;23.10;76.30;;;;;;4120014;28;20042;-51
2023/07/16 09:55:49;;;;;;;11.98;4.75;;;23.10;76.80;;;;;;4130836;28;20085;-50
2023/07/16 09:57:56;;;;;;;13.80;5.90;;;23.20;77.10;;;;;;4113448;28;20537;-52
2023/07/16 10:00:00;;;;;;;11.43;4.85;;;23.30;77.20;;;;;;4129859;28;20058;-54
2023/07/16 10:02:03;;;;;;;19.05;5.60;;;23.30;77.40;;;;;;4130250;28;20062;-51
2023/07/16 10:04:16;;;;;;;11.45;5.30;;;23.50;77.80;;;;;;4130658;28;20050;-51
2023/07/16 10:06:22;;;;;;;13.73;5.38;;;23.60;76.90;;;;;;4131222;28;20046;-52
2023/07/16 10:08:24;;;;;;;17.05;5.60;;;23.80;76.40;;;;;;4131379;28;20053;-51
2023/07/16 10:10:37;;;;;;;14.13;5.07;;;23.90;76.30;;;;;;4130309;28;20536;-51
2023/07/16 10:12:41;;;;;;;11.43;5.15;;;24.00;75.50;;;;;;4130449;28;20108;-55
2023/07/16 10:14:46;;;;;;;13.70;5.10;;;24.20;75.70;;;;;;4130533;28;20101;-53
2023/07/16 10:16:48;;;;;;;13.77;5.28;;;24.30;74.70;;;;;;4131020;28;20050;-51
2023/07/16 10:18:53;;;;;;;11.45;4.90;;;24.20;73.50;;;;;;4130461;28;20077;-52
2023/07/16 10:21:00;;;;;;;16.60;5.25;;;24.20;72.60;;;;;;4116896;28;20049;-50
2023/07/16 10:23:12;;;;;;;13.20;4.82;;;24.30;72.40;;;;;;4125542;28;20109;-57
2023/07/16 10:25:22;;;;;;;15.60;5.43;;;24.40;71.90;;;;;;4133940;28;20078;-52
2023/07/16 10:27:30;;;;;;;15.18;4.20;;;24.20;71.20;;;;;;4133848;28;20108;-53
2023/07/16 10:29:32;;;;;;;12.00;5.13;;;24.10;71.00;;;;;;4130640;28;20039;-51
2023/07/16 10:31:35;;;;;;;9.98;4.15;;;24.00;70.80;;;;;;4131857;28;20418;-51
2023/07/16 10:33:38;;;;;;;26.52;5.43;;;24.10;69.90;;;;;;4133675;28;20046;-52